Time,TemperatureF,DewpointF,PressureIn,WindDirection,WindDirectionDegrees,WindSpeedMPH,WindSpeedGustMPH,Humidity,HourlyPrecipIn,Conditions,Clouds,dailyrainin,SoftwareType,DateUTC
2013-02-08 00:01:00,16.7,1.0,30.51,SSW,192,1.0,-999.0,49,-99.99,,,0.00,weatherlink.com 1.10,2013-02-08 05:01:00,
2013-02-08 00:16:00,16.8,1.0,30.51,SSW,192,0.0,-999.0,51,-99.99,,,0.00,weatherlink.com 1.10,2013-02-08 05:16:00,
2013-02-08 00:31:00,17.0,2.0,30.50,South,190,2.0,-999.0,53,-99.99,,,0.00,weatherlink.com 1.10,2013-02-08 05:31:00,
2013-02-08 00:46:00,17.0,2.0,30.50,South,184,1.0,-999.0,51,-99.99,,,0.00,weatherlink.com 1.10,2013-02-08 05:46:00,
2013-02-08 01:01:00,17.2,1.0,30.50,SSW,197,2.0,-999.0,50,-99.99,,,0.00,weatherlink.com 1.10,2013-02-08 06:01:00,
2013-02-08 01:16:00,17.4,2.0,30.50,South,184,4.0,-999.0,51,-99.99,,,0.00,weatherlink.com 1.10,2013-02-08 06:16:00,
2013-02-08 01:31:00,17.6,2.0,30.49,South,184,5.0,-999.0,51,-99.99,,,0.00,weatherlink.com 1.10,2013-02-08 06:31:00,
2013-02-08 01:47:00,17.8,2.0,30.49,South,184,5.0,-999.0,50,-99.99,,,0.00,weatherlink.com 1.10,2013-02-08 06:47:00,
2013-02-08 02:01:00,18.1,2.0,30.48,South,188,5.0,-999.0,50,-99.99,,,0.00,weatherlink.com 1.10,2013-02-08 07:01:00,
2013-02-08 02:16:00,18.2,1.0,30.48,SSW,198,4.0,-999.0,48,-99.99,,,0.00,weatherlink.com 1.10,2013-02-08 07:16:00,
2013-02-08 02:31:00,18.5,1.0,30.47,South,187,0.0,-999.0,47,-99.99,,,0.00,weatherlink.com 1.10,2013-02-08 07:31:00,
2013-02-08 02:47:00,18.6,1.0,30.46,South,191,2.0,-999.0,47,-99.99,,,0.00,weatherlink.com 1.10,2013-02-08 07:47:00,
2013-02-08 03:02:00,18.8,2.0,30.46,South,191,2.0,-999.0,47,-99.99,,,0.00,weatherlink.com 1.10,2013-02-08 08:02:00,
2013-02-08 03:17:00,18.8,2.0,30.45,South,182,2.0,-999.0,48,-99.99,,,0.00,weatherlink.com 1.10,2013-02-08 08:17:00,
2013-02-08 03:32:00,18.8,2.0,30.44,South,182,0.0,-999.0,47,-99.99,,,0.00,weatherlink.com 1.10,2013-02-08 08:32:00,
2013-02-08 03:47:00,18.8,3.0,30.43,SSE,160,0.0,-999.0,51,-99.99,,,0.00,weatherlink.com 1.10,2013-02-08 08:47:00,
2013-02-08 04:02:00,18.4,5.0,30.43,ESE,118,4.0,-999.0,57,-99.99,,,0.00,weatherlink.com 1.10,2013-02-08 09:02:00,
2013-02-08 04:17:00,18.0,7.0,30.43,ESE,110,0.0,-999.0,62,-99.99,,,0.00,weatherlink.com 1.10,2013-02-08 09:17:00,
2013-02-08 04:32:00,17.6,8.0,30.42,SE,145,4.0,-999.0,66,-99.99,,,0.00,weatherlink.com 1.10,2013-02-08 09:32:00,
2013-02-08 04:47:00,17.4,8.0,30.41,SSE,147,0.0,-999.0,68,-99.99,,,0.00,weatherlink.com 1.10,2013-02-08 09:47:00,
2013-02-08 05:02:00,17.5,9.0,30.41,SSE,163,4.0,-999.0,68,-99.99,,,0.00,weatherlink.com 1.10,2013-02-08 10:02:00,
2013-02-08 05:17:00,17.6,9.0,30.42,SSW,203,0.0,-999.0,69,-99.99,,,0.00,weatherlink.com 1.10,2013-02-08 10:17:00,
2013-02-08 05:31:00,17.6,9.0,30.42,SSE,163,0.0,-999.0,70,-99.99,,,0.00,weatherlink.com 1.10,2013-02-08 10:31:00,
2013-02-08 05:47:00,17.1,10.0,30.40,SSW,192,0.0,-999.0,74,-99.99,,,0.00,weatherlink.com 1.10,2013-02-08 10:47:00,
2013-02-08 06:02:00,16.8,11.0,30.40,South,189,4.0,-999.0,78,-99.99,,,0.00,weatherlink.com 1.10,2013-02-08 11:02:00,
2013-02-08 06:17:00,16.6,12.0,30.39,South,182,0.0,-999.0,81,-99.99,,,0.00,weatherlink.com 1.10,2013-02-08 11:17:00,
2013-02-08 06:32:00,16.6,12.0,30.39,SSE,163,2.0,-999.0,83,-99.99,,,0.00,weatherlink.com 1.10,2013-02-08 11:32:00,
2013-02-08 06:47:00,16.7,13.0,30.39,South,191,1.0,-999.0,84,-99.99,,,0.00,weatherlink.com 1.10,2013-02-08 11:47:00,
2013-02-08 07:02:00,16.7,13.0,30.39,South,182,1.0,-999.0,85,-99.99,,,0.00,weatherlink.com 1.10,2013-02-08 12:02:00,
2013-02-08 07:17:00,16.7,13.0,30.39,South,182,0.0,-999.0,86,-99.99,,,0.00,weatherlink.com 1.10,2013-02-08 12:17:00,
2013-02-08 07:32:00,16.7,13.0,30.39,SE,145,0.0,-999.0,86,-99.99,,,0.00,weatherlink.com 1.10,2013-02-08 12:32:00,
2013-02-08 07:48:00,16.8,14.0,30.39,SE,132,0.0,-999.0,87,-99.99,,,0.00,weatherlink.com 1.10,2013-02-08 12:48:00,
2013-02-08 08:03:00,16.8,14.0,30.39,SE,132,2.0,-999.0,87,-99.99,,,0.00,weatherlink.com 1.10,2013-02-08 13:03:00,
2013-02-08 08:17:00,16.7,14.0,30.39,SSE,163,2.0,-999.0,87,-99.99,,,0.00,weatherlink.com 1.10,2013-02-08 13:17:00,
2013-02-08 08:33:00,16.7,13.0,30.39,South,176,1.0,-999.0,86,-99.99,,,0.00,weatherlink.com 1.10,2013-02-08 13:33:00,
2013-02-08 08:48:00,16.8,13.0,30.38,SSE,155,1.0,-999.0,86,-99.99,,,0.00,weatherlink.com 1.10,2013-02-08 13:48:00,
2013-02-08 09:02:00,16.8,13.0,30.37,SSE,148,7.0,-999.0,86,-99.99,,,0.00,weatherlink.com 1.10,2013-02-08 14:02:00,
2013-02-08 09:17:00,16.8,13.0,30.37,South,182,7.0,-999.0,86,-99.99,,,0.00,weatherlink.com 1.10,2013-02-08 14:17:00,
2013-02-08 09:32:00,16.9,13.0,30.36,SSE,167,4.0,-999.0,86,-99.99,,,0.00,weatherlink.com 1.10,2013-02-08 14:32:00,
2013-02-08 09:48:00,17.1,14.0,30.36,SSE,153,4.0,-999.0,86,-99.99,,,0.00,weatherlink.com 1.10,2013-02-08 14:48:00,
2013-02-08 10:03:00,17.4,14.0,30.35,South,180,1.0,-999.0,86,-99.99,,,0.00,weatherlink.com 1.10,2013-02-08 15:03:00,
2013-02-08 10:18:00,17.4,14.0,30.35,SSE,150,0.0,-999.0,86,-99.99,,,0.00,weatherlink.com 1.10,2013-02-08 15:18:00,
2013-02-08 10:33:00,17.6,14.0,30.35,SSE,163,12.0,-999.0,86,-99.99,,,0.00,weatherlink.com 1.10,2013-02-08 15:33:00,
2013-02-08 10:48:00,18.0,14.0,30.35,South,188,2.0,-999.0,85,-99.99,,,0.00,weatherlink.com 1.10,2013-02-08 15:48:00,
2013-02-08 11:03:00,18.1,14.0,30.34,SSE,157,4.0,-999.0,84,-99.99,,,0.00,weatherlink.com 1.10,2013-02-08 16:03:00,
2013-02-08 11:18:00,18.2,14.0,30.33,SSE,163,9.0,-999.0,84,-99.99,,,0.00,weatherlink.com 1.10,2013-02-08 16:18:00,
2013-02-08 11:33:00,18.3,14.0,30.32,SSE,155,5.0,-999.0,84,-99.99,,,0.00,weatherlink.com 1.10,2013-02-08 16:33:00,
2013-02-08 11:48:00,18.4,14.0,30.31,South,178,9.0,-999.0,83,-99.99,,,0.00,weatherlink.com 1.10,2013-02-08 16:48:00,
2013-02-08 12:03:00,18.4,14.0,30.30,South,187,7.0,-999.0,82,-99.99,,,0.00,weatherlink.com 1.10,2013-02-08 17:03:00,
2013-02-08 12:18:00,18.4,14.0,30.29,South,191,7.0,-999.0,83,-99.99,,,0.00,weatherlink.com 1.10,2013-02-08 17:18:00,
2013-02-08 12:33:00,18.0,14.0,30.27,South,181,8.0,-999.0,84,-99.99,,,0.00,weatherlink.com 1.10,2013-02-08 17:33:00,
2013-02-08 12:48:00,18.1,14.0,30.26,South,182,9.0,-999.0,84,-99.99,,,0.00,weatherlink.com 1.10,2013-02-08 17:48:00,
2013-02-08 13:03:00,18.3,14.0,30.25,SSW,209,9.0,-999.0,84,-99.99,,,0.00,weatherlink.com 1.10,2013-02-08 18:03:00,
2013-02-08 13:18:00,18.4,14.0,30.24,South,182,4.0,-999.0,84,-99.99,,,0.00,weatherlink.com 1.10,2013-02-08 18:18:00,
2013-02-08 13:33:00,18.6,15.0,30.22,South,180,2.0,-999.0,85,-99.99,,,0.00,weatherlink.com 1.10,2013-02-08 18:33:00,
2013-02-08 13:48:00,18.9,15.0,30.21,South,176,2.0,-999.0,85,-99.99,,,0.00,weatherlink.com 1.10,2013-02-08 18:48:00,
2013-02-08 14:03:00,19.0,15.0,30.20,South,178,4.0,-999.0,85,-99.99,,,0.00,weatherlink.com 1.10,2013-02-08 19:03:00,
2013-02-08 14:18:00,19.2,16.0,30.19,South,178,4.0,-999.0,86,-99.99,,,0.00,weatherlink.com 1.10,2013-02-08 19:18:00,
2013-02-08 14:33:00,19.6,16.0,30.18,South,178,1.0,-999.0,86,-99.99,,,0.00,weatherlink.com 1.10,2013-02-08 19:33:00,
2013-02-08 14:48:00,19.7,16.0,30.18,South,178,0.0,-999.0,86,-99.99,,,0.00,weatherlink.com 1.10,2013-02-08 19:48:00,
2013-02-08 15:03:00,20.0,16.0,30.16,South,178,0.0,-999.0,85,-99.99,,,0.00,weatherlink.com 1.10,2013-02-08 20:03:00,
2013-02-08 15:18:00,20.2,16.0,30.16,South,178,1.0,-999.0,85,-99.99,,,0.00,weatherlink.com 1.10,2013-02-08 20:18:00,
2013-02-08 15:33:00,20.4,17.0,30.16,South,178,2.0,-999.0,85,-99.99,,,0.00,weatherlink.com 1.10,2013-02-08 20:33:00,
2013-02-08 15:49:00,20.6,17.0,30.15,South,178,2.0,-999.0,84,-99.99,,,0.00,weatherlink.com 1.10,2013-02-08 20:49:00,
2013-02-08 16:04:00,20.7,17.0,30.14,South,178,1.0,-999.0,84,-99.99,,,0.00,weatherlink.com 1.10,2013-02-08 21:04:00,
2013-02-08 16:19:00,20.3,16.0,30.13,SSE,160,2.0,-999.0,84,-99.99,,,0.00,weatherlink.com 1.10,2013-02-08 21:19:00,
2013-02-08 16:34:00,20.0,17.0,30.12,South,178,0.0,-999.0,86,-99.99,,,0.00,weatherlink.com 1.10,2013-02-08 21:34:00,
2013-02-08 16:49:00,19.7,17.0,30.12,SE,132,0.0,-999.0,87,-99.99,,,0.00,weatherlink.com 1.10,2013-02-08 21:49:00,
2013-02-08 17:04:00,19.6,16.0,30.12,North,4,0.0,-999.0,87,-99.99,,,0.00,weatherlink.com 1.10,2013-02-08 22:04:00,
2013-02-08 17:19:00,19.4,19.0,30.12,NNE,15,5.0,-999.0,96,-99.99,,,0.00,weatherlink.com 1.10,2013-02-08 22:19:00,
2013-02-08 17:34:00,19.2,16.0,30.11,SE,125,5.0,-999.0,87,-99.99,,,0.00,weatherlink.com 1.10,2013-02-08 22:34:00,
2013-02-08 17:49:00,19.0,16.0,30.11,SSE,167,7.0,-999.0,87,-99.99,,,0.00,weatherlink.com 1.10,2013-02-08 22:49:00,
2013-02-08 18:04:00,18.9,16.0,30.09,SE,126,4.0,-999.0,88,-99.99,,,0.00,weatherlink.com 1.10,2013-02-08 23:04:00,
2013-02-08 18:19:00,19.1,16.0,30.09,SE,145,4.0,-999.0,87,-99.99,,,0.00,weatherlink.com 1.10,2013-02-08 23:19:00,
2013-02-08 18:34:00,19.2,16.0,30.09,SSE,151,4.0,-999.0,87,-99.99,,,0.00,weatherlink.com 1.10,2013-02-08 23:34:00,
2013-02-08 18:49:00,19.1,16.0,30.08,SSE,164,0.0,-999.0,87,-99.99,,,0.00,weatherlink.com 1.10,2013-02-08 23:49:00,
2013-02-08 19:04:00,19.2,16.0,30.07,North,359,1.0,-999.0,88,-99.99,,,0.00,weatherlink.com 1.10,2013-02-09 00:04:00,
2013-02-08 19:19:00,19.4,16.0,30.07,SW,221,0.0,-999.0,88,-99.99,,,0.00,weatherlink.com 1.10,2013-02-09 00:19:00,
2013-02-08 19:34:00,19.4,16.0,30.07,East,87,2.0,-999.0,88,-99.99,,,0.00,weatherlink.com 1.10,2013-02-09 00:34:00,
2013-02-08 19:49:00,19.5,17.0,30.06,East,101,0.0,-999.0,89,-99.99,,,0.00,weatherlink.com 1.10,2013-02-09 00:49:00,
2013-02-08 20:04:00,19.5,17.0,30.04,NNE,32,0.0,-999.0,89,-99.99,,,0.00,weatherlink.com 1.10,2013-02-09 01:04:00,
2013-02-08 20:19:00,19.6,17.0,30.04,South,172,0.0,-999.0,89,-99.99,,,0.00,weatherlink.com 1.10,2013-02-09 01:19:00,
2013-02-08 20:34:00,19.5,17.0,30.04,SE,129,2.0,-999.0,89,-99.99,,,0.00,weatherlink.com 1.10,2013-02-09 01:34:00,
2013-02-08 20:50:00,19.4,17.0,30.02,SSE,155,0.0,-999.0,89,-99.99,,,0.00,weatherlink.com 1.10,2013-02-09 01:50:00,
2013-02-08 21:04:00,19.3,17.0,30.02,SSW,213,0.0,-999.0,90,-99.99,,,0.00,weatherlink.com 1.10,2013-02-09 02:04:00,
2013-02-08 21:19:00,19.3,17.0,30.00,North,360,1.0,-999.0,90,-99.99,,,0.00,weatherlink.com 1.10,2013-02-09 02:19:00,
2013-02-08 21:34:00,19.3,17.0,30.00,NNW,346,1.0,-999.0,90,-99.99,,,0.00,weatherlink.com 1.10,2013-02-09 02:34:00,
2013-02-08 21:49:00,19.2,17.0,29.99,NNW,346,1.0,-999.0,90,-99.99,,,0.00,weatherlink.com 1.10,2013-02-09 02:49:00,
2013-02-08 22:04:00,19.1,17.0,29.97,NNW,346,2.0,-999.0,90,-99.99,,,0.00,weatherlink.com 1.10,2013-02-09 03:04:00,
2013-02-08 22:19:00,19.2,17.0,29.96,NNW,342,1.0,-999.0,90,-99.99,,,0.00,weatherlink.com 1.10,2013-02-09 03:19:00,
2013-02-08 22:34:00,19.2,17.0,29.95,NW,321,6.0,-999.0,90,-99.99,,,0.00,weatherlink.com 1.10,2013-02-09 03:34:00,
2013-02-08 22:50:00,19.1,17.0,29.93,North,10,6.0,-999.0,90,-99.99,,,0.00,weatherlink.com 1.10,2013-02-09 03:50:00,
2013-02-08 23:05:00,19.0,17.0,29.93,North,5,3.0,-999.0,90,-99.99,,,0.00,weatherlink.com 1.10,2013-02-09 04:05:00,
2013-02-08 23:20:00,18.9,17.0,29.92,NE,34,5.0,-999.0,90,-99.99,,,0.00,weatherlink.com 1.10,2013-02-09 04:20:00,
2013-02-08 23:35:00,18.4,16.0,29.91,NNW,344,5.0,-999.0,90,-99.99,,,0.00,weatherlink.com 1.10,2013-02-09 04:35:00,
2013-02-08 23:50:00,18.0,16.0,29.91,North,5,5.0,-999.0,90,-99.99,,,0.00,weatherlink.com 1.10,2013-02-09 04:50:00,